createdAt,value
2019-03-06T00:00:33.258Z,75.90
2019-03-06T00:04:36.233Z,76.10
2019-03-06T00:08:39.240Z,76.50
2019-03-06T00:12:42.238Z,76.20
2019-03-06T00:16:46.792Z,76.10
2019-03-06T00:20:49.778Z,75.50
2019-03-06T00:24:52.791Z,74.80
2019-03-06T00:28:55.773Z,75.40
2019-03-06T00:32:58.764Z,75.90
2019-03-06T00:37:01.764Z,75.90
2019-03-06T00:41:12.579Z,75.20
2019-03-06T00:45:15.579Z,74.60
2019-03-06T00:49:18.602Z,74.80
2019-03-06T00:53:21.703Z,74.80
2019-03-06T00:57:24.713Z,74.70
2019-03-06T01:01:27.697Z,75.30
2019-03-06T01:05:30.685Z,75.60
2019-03-06T01:09:33.687Z,76.10
2019-03-06T01:13:36.699Z,76.40
2019-03-06T01:17:40.342Z,75.40
2019-03-06T01:21:43.352Z,75.60
2019-03-06T01:25:46.430Z,76.00
2019-03-06T01:29:49.426Z,75.80
2019-03-06T01:33:54.336Z,75.40
2019-03-06T01:38:11.362Z,75.60
2019-03-06T01:42:16.272Z,75.70
2019-03-06T01:46:19.278Z,75.90
2019-03-06T01:50:22.257Z,76.00
2019-03-06T01:54:25.251Z,75.10
2019-03-06T01:58:28.253Z,74.50
2019-03-06T02:02:31.246Z,74.00
2019-03-06T02:06:34.586Z,74.10
2019-03-06T02:10:38.389Z,73.70
2019-03-06T02:14:41.506Z,74.10
2019-03-06T02:18:44.878Z,74.80
2019-03-06T02:22:47.999Z,75.30
2019-03-06T02:26:50.971Z,75.90
2019-03-06T02:30:53.994Z,76.20
2019-03-06T02:34:57.393Z,76.40
2019-03-06T02:39:00.379Z,76.50
2019-03-06T02:43:03.406Z,75.80
2019-03-06T02:47:06.403Z,75.70
2019-03-06T02:51:09.473Z,75.50
2019-03-06T02:55:14.217Z,75.50
2019-03-06T02:59:19.186Z,76.60
2019-03-06T03:03:26.699Z,76.40
2019-03-06T03:07:30.068Z,76.00
2019-03-06T03:11:33.060Z,75.50
2019-03-06T03:15:36.057Z,74.90
2019-03-06T03:19:40.610Z,74.90
2019-03-06T03:23:43.618Z,75.30
2019-03-06T03:27:46.614Z,76.00
2019-03-06T03:31:49.639Z,77.30
2019-03-06T03:35:52.650Z,77.30
2019-03-06T03:39:55.663Z,76.90
2019-03-06T03:43:58.681Z,77.10
2019-03-06T03:48:01.685Z,78.00
2019-03-06T03:52:04.675Z,77.50
2019-03-06T03:56:07.682Z,77.90
2019-03-06T04:00:19.361Z,77.40
2019-03-06T04:04:22.477Z,77.80
2019-03-06T04:08:25.461Z,77.90
2019-03-06T04:12:28.687Z,78.10
2019-03-06T04:16:31.753Z,77.90
2019-03-06T04:20:36.453Z,77.80
2019-03-06T04:24:39.536Z,77.40
2019-03-06T04:28:42.547Z,77.40
2019-03-06T04:32:45.616Z,77.70
2019-03-06T04:36:48.614Z,77.50
2019-03-06T04:40:51.614Z,76.80
2019-03-06T04:44:55.401Z,76.40
2019-03-06T04:48:58.502Z,76.00
2019-03-06T04:53:01.511Z,75.90
2019-03-06T04:57:04.527Z,76.30
2019-03-06T05:01:07.526Z,77.40
2019-03-06T05:05:10.633Z,77.90
2019-03-06T05:09:13.617Z,78.10
2019-03-06T05:13:16.626Z,78.90
2019-03-06T05:17:21.547Z,79.50
2019-03-06T05:21:25.443Z,78.80
2019-03-06T05:25:28.478Z,78.50
2019-03-06T05:29:31.483Z,78.00
2019-03-06T05:33:34.496Z,78.00
2019-03-06T05:37:49.859Z,78.10
2019-03-06T05:41:52.882Z,77.70
2019-03-06T05:45:55.908Z,77.40
2019-03-06T05:49:59.000Z,77.90
2019-03-06T05:54:01.975Z,78.50
2019-03-06T05:58:04.974Z,78.60
2019-03-06T06:02:07.959Z,78.50
2019-03-06T06:06:10.960Z,78.50
2019-03-06T06:10:14.254Z,78.10
2019-03-06T06:14:17.275Z,77.90
2019-03-06T06:18:20.273Z,77.70
2019-03-06T06:22:43.309Z,76.90
2019-03-06T06:26:46.303Z,76.50
2019-03-06T06:30:49.314Z,75.60
2019-03-06T06:34:52.327Z,75.40
2019-03-06T06:38:55.331Z,74.70
2019-03-06T06:42:58.338Z,74.40
2019-03-06T06:47:01.391Z,74.10
2019-03-06T06:51:40.120Z,73.60
2019-03-06T06:55:52.525Z,73.40
2019-03-06T07:00:08.392Z,73.30
2019-03-06T07:04:56.097Z,86.10
2019-03-06T07:09:01.018Z,72.30
2019-03-06T07:13:05.929Z,70.30
2019-03-06T07:17:13.678Z,69.40
2019-03-06T07:21:21.130Z,68.80
2019-03-06T07:25:28.094Z,67.50
2019-03-06T07:29:35.698Z,66.90
2019-03-06T07:33:40.603Z,65.10
2019-03-06T07:37:45.918Z,64.50
2019-03-06T07:42:07.126Z,63.60
2019-03-06T07:46:14.975Z,63.00
2019-03-06T07:50:25.526Z,62.00
2019-03-06T07:54:30.423Z,59.30
2019-03-06T07:58:51.431Z,58.50
2019-03-06T08:03:00.883Z,56.60
2019-03-06T08:07:05.803Z,55.40
2019-03-06T08:11:10.027Z,54.80
2019-03-06T08:15:20.694Z,54.80
2019-03-06T08:19:28.101Z,52.50
2019-03-06T08:23:35.782Z,53.00
2019-03-06T08:27:40.864Z,53.10
2019-03-06T08:31:45.573Z,52.20
2019-03-06T08:35:48.592Z,48.70
2019-03-06T08:39:51.607Z,48.00
2019-03-06T08:43:54.635Z,47.10
2019-03-06T08:48:16.160Z,46.60
2019-03-06T08:52:30.085Z,46.70
2019-03-06T08:56:37.543Z,45.00
2019-03-06T09:00:46.417Z,41.80
2019-03-06T09:05:10.294Z,41.80
2019-03-06T09:09:19.047Z,39.80
2019-03-06T09:13:26.472Z,41.70
2019-03-06T09:17:31.385Z,40.60
2019-03-06T09:21:36.304Z,40.40
2019-03-06T09:25:57.903Z,37.40
2019-03-06T09:30:24.717Z,37.20
2019-03-06T09:34:35.631Z,37.00
2019-03-06T09:38:57.045Z,37.30
2019-03-06T09:43:04.484Z,36.60
2019-03-06T09:47:09.392Z,36.80
2019-03-06T09:51:29.181Z,38.30
2019-03-06T09:55:34.094Z,38.20
2019-03-06T09:59:55.225Z,38.30
2019-03-06T10:04:03.002Z,37.80
2019-03-06T10:08:16.722Z,36.50
2019-03-06T10:12:30.484Z,37.10
2019-03-06T10:16:37.934Z,36.60
2019-03-06T10:20:40.927Z,37.90
2019-03-06T10:24:43.947Z,38.00
2019-03-06T10:28:46.947Z,37.10
2019-03-06T10:32:51.349Z,37.90
2019-03-06T10:36:54.359Z,36.00
2019-03-06T10:40:57.490Z,36.20
2019-03-06T10:45:00.606Z,35.10
2019-03-06T10:49:04.018Z,34.10
2019-03-06T10:53:07.469Z,35.80
2019-03-06T10:57:11.875Z,33.90
2019-03-06T11:01:16.439Z,36.70
2019-03-06T11:05:24.472Z,34.70
2019-03-06T11:09:27.996Z,35.00
2019-03-06T11:13:31.287Z,34.00
2019-03-06T11:17:34.404Z,31.30
2019-03-06T11:21:37.709Z,31.90
2019-03-06T11:25:41.513Z,32.80
2019-03-06T11:29:44.623Z,32.30
2019-03-06T11:33:47.894Z,32.80
2019-03-06T11:37:51.318Z,30.80
2019-03-06T11:41:54.443Z,32.50
2019-03-06T11:45:57.456Z,32.50
2019-03-06T11:50:00.695Z,32.50
2019-03-06T11:54:03.808Z,34.80
2019-03-06T11:58:10.622Z,35.00
2019-03-06T12:02:13.933Z,35.20
2019-03-06T12:06:17.059Z,33.50
2019-03-06T12:10:20.471Z,34.20
2019-03-06T12:14:23.604Z,35.80
2019-03-06T12:18:26.744Z,36.00
2019-03-06T12:22:29.965Z,35.40
2019-03-06T12:26:32.978Z,35.70
2019-03-06T12:30:37.096Z,35.60
2019-03-06T12:34:40.991Z,35.70
2019-03-06T12:38:43.986Z,37.40
2019-03-06T12:42:47.114Z,35.80
2019-03-06T12:46:50.201Z,37.10
2019-03-06T12:50:56.416Z,36.70
2019-03-06T12:54:58.525Z,37.70
2019-03-06T12:59:01.632Z,38.10
2019-03-06T13:03:04.631Z,38.20
2019-03-06T13:07:07.744Z,39.30
2019-03-06T13:11:10.843Z,38.60
2019-03-06T13:15:22.590Z,37.50
2019-03-06T13:19:26.760Z,37.20
2019-03-06T13:23:29.774Z,37.30
2019-03-06T13:27:32.889Z,36.30
2019-03-06T13:31:35.887Z,37.00
2019-03-06T13:35:40.191Z,37.30
2019-03-06T13:39:43.221Z,37.70
2019-03-06T13:43:46.223Z,37.90
2019-03-06T13:47:50.962Z,37.20
2019-03-06T13:51:54.150Z,37.00
2019-03-06T13:55:57.179Z,37.30
2019-03-06T14:00:00.352Z,36.80
2019-03-06T14:04:03.431Z,35.60
2019-03-06T14:08:06.535Z,35.70
2019-03-06T14:12:09.938Z,36.20
2019-03-06T14:16:12.963Z,36.10
2019-03-06T14:20:20.968Z,36.60
2019-03-06T14:24:24.088Z,36.20
2019-03-06T14:28:28.175Z,37.30
2019-03-06T14:32:31.173Z,36.30
2019-03-06T14:36:35.915Z,36.80
2019-03-06T14:40:39.138Z,36.00
2019-03-06T14:44:42.236Z,35.40
2019-03-06T14:48:45.338Z,35.70
2019-03-06T14:52:48.346Z,35.10
2019-03-06T14:56:51.744Z,34.40
2019-03-06T15:00:54.748Z,33.80
2019-03-06T15:04:57.771Z,34.00
2019-03-06T15:09:00.878Z,33.20
2019-03-06T15:13:04.063Z,34.20
2019-03-06T15:17:07.363Z,34.20
2019-03-06T15:21:10.398Z,32.40
2019-03-06T15:25:15.862Z,33.30
2019-03-06T15:29:18.901Z,30.90
2019-03-06T15:33:21.913Z,30.80
2019-03-06T15:37:25.302Z,30.60
2019-03-06T15:41:28.556Z,30.10
2019-03-06T15:45:33.491Z,30.70
2019-03-06T15:49:36.491Z,31.40
2019-03-06T15:53:39.725Z,31.40
2019-03-06T15:57:42.729Z,32.00
2019-03-06T16:01:46.149Z,32.10
2019-03-06T16:05:51.088Z,33.00
2019-03-06T16:09:55.305Z,33.10
2019-03-06T16:13:58.500Z,34.50
2019-03-06T16:18:06.448Z,35.10
2019-03-06T16:22:09.719Z,35.60
2019-03-06T16:26:12.863Z,36.50
2019-03-06T16:30:17.704Z,36.10
2019-03-06T16:34:20.718Z,35.40
2019-03-06T16:38:25.512Z,35.60
2019-03-06T16:42:28.504Z,36.20
2019-03-06T16:46:31.630Z,36.10
2019-03-06T16:50:34.882Z,36.70
2019-03-06T16:54:39.447Z,37.90
2019-03-06T16:58:42.715Z,41.70
2019-03-06T17:02:45.932Z,41.40
2019-03-06T17:06:49.022Z,44.20
2019-03-06T17:10:52.127Z,44.90
2019-03-06T17:14:55.132Z,43.80
2019-03-06T17:18:58.147Z,44.40
2019-03-06T17:23:03.224Z,44.40
2019-03-06T17:27:06.327Z,44.50
2019-03-06T17:31:09.313Z,44.80
2019-03-06T17:35:12.470Z,45.10
2019-03-06T17:39:17.536Z,45.80
2019-03-06T17:43:20.623Z,44.60
2019-03-06T17:47:23.652Z,45.20
2019-03-06T17:51:26.651Z,45.90
2019-03-06T17:55:29.645Z,45.90
2019-03-06T17:59:32.748Z,46.20
2019-03-06T18:03:46.719Z,47.10
2019-03-06T18:07:49.719Z,46.90
2019-03-06T18:11:52.782Z,48.00
2019-03-06T18:15:56.111Z,47.20
2019-03-06T18:19:59.196Z,48.30
2019-03-06T18:24:02.604Z,48.00
2019-03-06T18:28:05.595Z,47.40
2019-03-06T18:32:08.687Z,49.50
2019-03-06T18:36:13.019Z,50.30
2019-03-06T18:40:18.844Z,49.40
2019-03-06T18:44:21.926Z,50.10
2019-03-06T18:48:24.928Z,51.80
2019-03-06T18:52:27.951Z,53.00
2019-03-06T18:56:30.963Z,54.00
2019-03-06T19:00:33.983Z,53.60
2019-03-06T19:04:37.004Z,55.10
2019-03-06T19:08:40.061Z,54.40
2019-03-06T19:12:43.139Z,55.00
2019-03-06T19:16:46.347Z,55.20
2019-03-06T19:20:49.349Z,56.40
2019-03-06T19:24:52.358Z,54.80
2019-03-06T19:28:55.359Z,54.70
2019-03-06T19:32:58.407Z,54.40
2019-03-06T19:37:01.387Z,54.60
2019-03-06T19:41:06.236Z,55.10
2019-03-06T19:45:11.748Z,55.60
2019-03-06T19:49:14.987Z,53.80
2019-03-06T19:53:17.992Z,54.30
2019-03-06T19:57:20.995Z,53.70
2019-03-06T20:01:23.991Z,53.10
2019-03-06T20:05:34.580Z,53.40
2019-03-06T20:09:37.465Z,53.60
2019-03-06T20:13:40.462Z,53.70
2019-03-06T20:17:43.548Z,53.30
2019-03-06T20:21:46.916Z,53.80
2019-03-06T20:25:50.010Z,51.40
2019-03-06T20:29:53.019Z,52.90
2019-03-06T20:33:56.120Z,51.90
2019-03-06T20:37:59.151Z,51.70
2019-03-06T20:42:03.374Z,52.60
2019-03-06T20:46:06.479Z,51.50
2019-03-06T20:50:11.918Z,50.30
2019-03-06T20:54:15.024Z,50.50
2019-03-06T20:58:18.055Z,50.80
2019-03-06T21:02:21.022Z,49.80
2019-03-06T21:06:33.055Z,51.00
2019-03-06T21:10:28.931Z,49.30
2019-03-06T21:14:32.138Z,49.30
2019-03-06T21:18:35.131Z,50.10
2019-03-06T21:22:38.201Z,49.50
2019-03-06T21:26:41.300Z,49.30
2019-03-06T21:30:46.095Z,48.90
2019-03-06T21:34:49.103Z,48.50
2019-03-06T21:38:52.149Z,49.10
2019-03-06T21:42:56.672Z,49.00
2019-03-06T21:46:59.708Z,46.90
2019-03-06T21:51:02.857Z,46.40
2019-03-06T21:55:08.943Z,47.40
2019-03-06T21:59:11.941Z,46.20
2019-03-06T22:03:14.938Z,47.30
2019-03-06T22:07:17.920Z,47.60
2019-03-06T22:11:20.939Z,47.60
2019-03-06T22:15:24.232Z,46.90
2019-03-06T22:19:27.238Z,47.80
2019-03-06T22:23:30.227Z,47.20
2019-03-06T22:27:33.225Z,48.00
2019-03-06T22:31:36.240Z,49.00
2019-03-06T22:35:39.231Z,48.90
2019-03-06T22:39:42.223Z,49.10
2019-03-06T22:43:45.390Z,48.90
2019-03-06T22:47:48.392Z,48.70
2019-03-06T22:51:51.407Z,49.20
2019-03-06T22:55:54.519Z,49.90
2019-03-06T22:59:57.516Z,50.00
2019-03-06T23:04:00.526Z,51.00
2019-03-06T23:08:03.627Z,50.10
2019-03-06T23:12:06.627Z,50.00
2019-03-06T23:16:09.931Z,50.30
2019-03-06T23:20:12.926Z,49.00
2019-03-06T23:24:15.926Z,49.40
2019-03-06T23:28:18.902Z,50.10
2019-03-06T23:32:21.914Z,49.60
2019-03-06T23:36:24.936Z,48.60
2019-03-06T23:40:27.968Z,47.70
2019-03-06T23:44:31.958Z,48.00
2019-03-06T23:48:34.956Z,48.50
2019-03-06T23:52:57.459Z,47.80
2019-03-06T23:57:00.462Z,47.30
